createdAt,value
2023-03-11T00:01:11.474Z,98771.41
2023-03-11T00:03:40.893Z,98786.94
2023-03-11T00:06:08.743Z,98781.88
2023-03-11T00:08:36.389Z,98773.50
2023-03-11T00:11:04.336Z,98768.53
2023-03-11T00:13:32.240Z,98778.72
2023-03-11T00:16:01.752Z,98768.56
2023-03-11T00:18:31.483Z,98773.91
2023-03-11T00:21:01.310Z,98779.56
2023-03-11T00:23:29.822Z,98783.47
2023-03-11T00:25:59.727Z,98788.38
2023-03-11T00:28:27.510Z,98787.06
2023-03-11T00:30:55.481Z,98813.78
2023-03-11T00:33:23.446Z,98812.69
2023-03-11T00:35:51.222Z,98813.91
2023-03-11T00:38:20.327Z,98811.94
2023-03-11T00:40:49.412Z,98809.59
2023-03-11T00:43:17.849Z,98811.28
2023-03-11T00:45:45.688Z,98793.13
2023-03-11T00:48:14.384Z,98816.97
2023-03-11T00:50:42.095Z,98792.09
2023-03-11T00:53:10.944Z,98796.31
2023-03-11T00:55:40.003Z,98813.53
2023-03-11T00:58:09.450Z,98797.41
2023-03-11T01:00:37.102Z,98807.94
2023-03-11T01:03:05.244Z,98832.13
2023-03-11T01:05:34.582Z,98811.25
2023-03-11T01:08:02.625Z,98830.75
2023-03-11T01:10:31.379Z,98821.03
2023-03-11T01:13:00.411Z,98811.94
2023-03-11T01:15:30.892Z,98819.06
2023-03-11T01:17:58.944Z,98841.63
2023-03-11T01:20:26.659Z,98822.66
2023-03-11T01:22:54.307Z,98813.28
2023-03-11T01:25:23.990Z,98803.69
2023-03-11T01:27:51.843Z,98808.25
2023-03-11T01:30:23.523Z,98797.63
2023-03-11T01:32:52.171Z,98806.72
2023-03-11T01:35:22.289Z,98807.28
2023-03-11T01:37:50.372Z,98814.84
2023-03-11T01:43:06.898Z,98816.75
2023-03-11T01:45:41.360Z,98846.28
2023-03-11T01:48:10.330Z,98841.88
2023-03-11T01:50:41.381Z,98847.66
2023-03-11T01:53:10.407Z,98854.25
2023-03-11T01:55:38.477Z,98867.16
2023-03-11T01:58:11.476Z,98876.75
2023-03-11T02:00:40.702Z,98874.16
2023-03-11T02:03:12.173Z,98871.25
2023-03-11T02:05:41.147Z,98871.00
2023-03-11T02:08:09.485Z,98869.91
2023-03-11T02:10:38.921Z,98857.97
2023-03-11T02:13:06.683Z,98863.88
2023-03-11T02:15:34.358Z,98861.38
2023-03-11T02:18:05.983Z,98846.28
2023-03-11T02:20:43.793Z,98837.47
2023-03-11T02:23:14.178Z,98840.09
2023-03-11T02:25:47.015Z,98844.94
2023-03-11T02:28:18.176Z,98841.63
2023-03-11T02:30:46.733Z,98852.31
2023-03-11T02:33:16.644Z,98864.47
2023-03-11T02:35:44.381Z,98864.75
2023-03-11T02:38:12.108Z,98867.78
2023-03-11T02:40:48.291Z,98865.47
2023-03-11T02:43:20.793Z,98861.63
2023-03-11T02:45:49.524Z,98863.34
2023-03-11T02:48:17.997Z,98859.25
2023-03-11T02:50:47.711Z,98863.34
2023-03-11T02:53:15.939Z,98871.44
2023-03-11T02:55:43.604Z,98857.47
2023-03-11T02:58:11.260Z,98859.19
2023-03-11T03:00:40.289Z,98859.38
2023-03-11T03:03:08.732Z,98869.25
2023-03-11T03:05:36.447Z,98869.78
2023-03-11T03:08:04.457Z,98878.16
2023-03-11T03:10:32.228Z,98875.41
2023-03-11T03:13:00.067Z,98887.34
2023-03-11T03:15:27.984Z,98884.28
2023-03-11T03:17:57.298Z,98890.47
2023-03-11T03:20:26.486Z,98886.66
2023-03-11T03:22:54.186Z,98884.94
2023-03-11T03:25:22.336Z,98882.94
2023-03-11T03:27:50.410Z,98884.72
2023-03-11T03:30:18.087Z,98893.06
2023-03-11T03:32:46.012Z,98903.78
2023-03-11T03:35:15.187Z,98905.50
2023-03-11T03:37:42.858Z,98908.91
2023-03-11T03:40:11.787Z,98914.13
2023-03-11T03:42:40.171Z,98907.44
2023-03-11T03:45:10.037Z,98910.16
2023-03-11T03:47:37.870Z,98907.41
2023-03-11T03:50:06.483Z,98917.13
2023-03-11T03:52:36.306Z,98919.00
2023-03-11T03:55:04.964Z,98917.75
2023-03-11T03:57:32.767Z,98918.53
2023-03-11T04:00:00.449Z,98920.56
2023-03-11T04:02:28.569Z,98926.34
2023-03-11T04:04:56.800Z,98926.75
2023-03-11T04:07:24.531Z,98928.69
2023-03-11T04:09:53.596Z,98935.19
2023-03-11T04:12:21.265Z,98941.63
2023-03-11T04:14:48.929Z,98941.75
2023-03-11T04:17:21.731Z,98941.19
2023-03-11T04:19:49.500Z,98933.06
2023-03-11T04:22:17.229Z,98930.00
2023-03-11T04:24:44.934Z,98938.47
2023-03-11T04:27:14.125Z,98937.56
2023-03-11T04:29:41.814Z,98928.69
2023-03-11T04:32:09.517Z,98934.72
2023-03-11T04:34:37.425Z,98938.16
2023-03-11T04:37:05.340Z,98933.25
2023-03-11T04:39:33.023Z,98942.03
2023-03-11T04:42:03.537Z,98944.94
2023-03-11T04:44:32.981Z,98937.88
2023-03-11T04:47:00.677Z,98944.81
2023-03-11T04:49:28.673Z,98950.53
2023-03-11T04:51:56.400Z,98951.41
2023-03-11T04:54:24.020Z,98960.00
2023-03-11T04:56:51.622Z,98952.38
2023-03-11T04:59:19.396Z,98964.00
2023-03-11T05:01:48.457Z,98962.63
2023-03-11T05:04:16.815Z,98959.66
2023-03-11T05:06:44.648Z,98961.56
2023-03-11T05:09:12.408Z,98958.59
2023-03-11T05:11:40.107Z,98952.88
2023-03-11T05:14:07.802Z,98954.59
2023-03-11T05:16:35.416Z,98956.16
2023-03-11T05:19:24.776Z,98967.06
2023-03-11T05:21:52.664Z,98954.34
2023-03-11T05:24:20.348Z,98951.97
2023-03-11T05:26:48.649Z,98947.78
2023-03-11T05:29:16.300Z,98952.16
2023-03-11T05:31:43.970Z,98969.56
2023-03-11T05:34:13.118Z,98965.31
2023-03-11T05:36:40.991Z,98971.66
2023-03-11T05:39:08.913Z,98979.16
2023-03-11T05:41:36.549Z,98974.38
2023-03-11T05:44:04.363Z,98972.56
2023-03-11T05:46:32.275Z,98973.13
2023-03-11T05:49:00.915Z,98975.53
2023-03-11T05:51:30.153Z,98977.81
2023-03-11T05:53:58.693Z,98969.56
2023-03-11T05:56:26.462Z,98974.88
2023-03-11T05:58:54.209Z,98978.66
2023-03-11T06:01:21.857Z,98982.78
2023-03-11T06:03:49.722Z,98976.44
2023-03-11T06:06:17.744Z,98975.88
2023-03-11T06:08:49.869Z,98979.34
2023-03-11T06:11:18.154Z,98983.47
2023-03-11T06:13:45.905Z,98990.78
2023-03-11T06:16:14.187Z,98993.09
2023-03-11T06:18:42.305Z,98991.47
2023-03-11T06:21:17.046Z,99005.94
2023-03-11T06:23:46.334Z,98999.84
2023-03-11T06:26:16.494Z,99013.44
2023-03-11T06:28:44.339Z,99022.41
2023-03-11T06:31:15.752Z,99026.44
2023-03-11T06:33:43.697Z,99023.00
2023-03-11T06:36:14.403Z,99025.59
2023-03-11T06:38:43.183Z,99022.72
2023-03-11T06:41:12.408Z,99020.13
2023-03-11T06:43:40.687Z,99034.88
2023-03-11T06:46:12.844Z,99035.34
2023-03-11T06:48:40.508Z,99043.72
2023-03-11T06:51:08.385Z,99053.84
2023-03-11T06:53:36.039Z,99046.91
2023-03-11T06:56:06.139Z,99054.66
2023-03-11T06:58:37.209Z,99057.34
2023-03-11T07:01:07.711Z,99056.91
2023-03-11T07:03:35.934Z,99065.28
2023-03-11T07:06:06.243Z,99067.66
2023-03-11T07:08:34.347Z,99069.97
2023-03-11T07:11:05.677Z,99069.03
2023-03-11T07:13:35.302Z,99069.22
2023-03-11T07:16:04.999Z,99072.13
2023-03-11T07:18:33.032Z,99075.31
2023-03-11T07:21:02.694Z,99074.84
2023-03-11T07:23:30.781Z,99077.59
2023-03-11T07:25:58.580Z,99089.19
2023-03-11T07:28:27.747Z,99102.19
2023-03-11T07:30:57.667Z,99098.38
2023-03-11T07:33:25.643Z,99098.78
2023-03-11T07:35:53.632Z,99107.25
2023-03-11T07:38:21.430Z,99108.75
2023-03-11T07:40:49.197Z,99123.84
2023-03-11T07:43:17.394Z,99127.81
2023-03-11T07:45:45.099Z,99126.25
2023-03-11T07:48:14.059Z,99134.97
2023-03-11T07:50:41.726Z,99127.69
2023-03-11T07:53:11.892Z,99135.31
2023-03-11T07:55:39.522Z,99138.66
2023-03-11T07:58:07.247Z,99141.47
2023-03-11T08:00:34.994Z,99151.75
2023-03-11T08:03:02.695Z,99143.75
2023-03-11T08:05:34.619Z,99153.41
2023-03-11T08:08:02.336Z,99148.72
2023-03-11T08:10:30.176Z,99156.75
2023-03-11T08:12:58.140Z,99151.84
2023-03-11T08:15:26.791Z,99152.47
2023-03-11T08:17:54.494Z,99164.59
2023-03-11T08:20:22.266Z,99164.38
2023-03-11T08:22:57.905Z,99168.72
2023-03-11T08:25:25.951Z,99161.63
2023-03-11T08:27:53.658Z,99155.38
2023-03-11T08:30:21.636Z,99154.66
2023-03-11T08:32:50.174Z,99150.84
2023-03-11T08:35:18.643Z,99160.09
2023-03-11T08:37:46.520Z,99160.69
2023-03-11T08:40:17.012Z,99154.47
2023-03-11T08:42:44.662Z,99165.81
2023-03-11T08:45:13.425Z,99171.88
2023-03-11T08:47:41.252Z,99168.97
2023-03-11T08:50:12.937Z,99171.56
2023-03-11T08:52:40.577Z,99176.94
2023-03-11T08:55:11.219Z,99171.53
2023-03-11T08:57:40.514Z,99173.34
2023-03-11T09:00:12.689Z,99174.41
2023-03-11T09:02:41.647Z,99179.00
2023-03-11T09:05:10.070Z,99180.59
2023-03-11T09:07:37.931Z,99186.91
2023-03-11T09:10:06.932Z,99177.00
2023-03-11T09:12:34.629Z,99179.34
2023-03-11T09:15:03.804Z,99182.03
2023-03-11T09:17:31.388Z,99175.53
2023-03-11T09:19:59.180Z,99180.16
2023-03-11T09:22:27.299Z,99179.31
2023-03-11T09:24:55.145Z,99183.53
2023-03-11T09:27:22.857Z,99177.13
2023-03-11T09:29:50.668Z,99175.44
2023-03-11T09:32:19.657Z,99175.88
2023-03-11T09:34:47.345Z,99170.94
2023-03-11T09:37:15.229Z,99179.38
2023-03-11T09:39:42.850Z,99171.66
2023-03-11T09:42:20.750Z,99170.53
2023-03-11T09:44:58.946Z,99166.59
2023-03-11T09:47:39.514Z,99172.78
2023-03-11T09:50:25.676Z,99168.28
2023-03-11T09:53:04.111Z,99167.59
2023-03-11T09:55:37.697Z,99172.59
2023-03-11T09:58:13.058Z,99179.19
2023-03-11T10:00:41.260Z,99181.47
2023-03-11T10:03:26.103Z,99172.91
2023-03-11T10:05:59.012Z,99177.13
2023-03-11T10:08:34.089Z,99175.22
2023-03-11T10:11:13.908Z,99180.47
2023-03-11T10:13:48.252Z,99179.97
2023-03-11T10:16:22.749Z,99182.03
2023-03-11T10:19:01.158Z,99188.78
2023-03-11T10:21:45.335Z,99195.56
2023-03-11T10:24:32.932Z,99185.94
2023-03-11T10:27:04.360Z,99183.13
2023-03-11T10:29:46.632Z,99183.09
2023-03-11T10:32:19.845Z,99194.25
2023-03-11T10:34:55.027Z,99190.66
2023-03-11T10:37:33.180Z,99183.91
2023-03-11T10:40:22.564Z,99194.56
2023-03-11T10:42:53.293Z,99190.19
2023-03-11T10:45:23.479Z,99198.41
2023-03-11T10:47:51.369Z,99187.63
2023-03-11T10:50:21.568Z,99185.16
2023-03-11T10:53:08.866Z,99174.25
2023-03-11T10:55:45.640Z,99183.13
2023-03-11T10:58:15.297Z,99198.63
2023-03-11T11:00:43.405Z,99201.16
2023-03-11T11:03:21.815Z,99187.81
2023-03-11T11:06:00.867Z,99199.97
2023-03-11T11:08:29.215Z,99188.72
2023-03-11T11:10:59.569Z,99188.94
2023-03-11T11:13:30.207Z,99191.34
2023-03-11T11:16:00.737Z,99192.59
2023-03-11T11:18:32.178Z,99196.31
2023-03-11T11:21:04.702Z,99198.78
2023-03-11T11:23:36.063Z,99196.88
2023-03-11T11:26:06.071Z,99196.78
2023-03-11T11:28:34.814Z,99186.44
2023-03-11T11:31:04.702Z,99179.66
2023-03-11T11:33:34.185Z,99179.00
2023-03-11T11:36:13.968Z,99185.03
2023-03-11T11:38:42.274Z,99184.78
2023-03-11T11:41:16.068Z,99174.19
2023-03-11T11:43:50.607Z,99167.16
2023-03-11T11:46:23.823Z,99171.94
2023-03-11T11:49:01.037Z,99174.19
2023-03-11T11:51:34.890Z,99175.28
2023-03-11T11:54:07.166Z,99170.56
2023-03-11T11:56:35.482Z,99166.34
2023-03-11T11:59:03.288Z,99165.34
2023-03-11T12:01:41.775Z,99173.38
2023-03-11T12:04:31.220Z,99173.09
2023-03-11T12:07:11.963Z,99160.78
2023-03-11T12:09:48.980Z,99165.69
2023-03-11T12:12:26.769Z,99150.69
2023-03-11T12:15:01.564Z,99143.97
2023-03-11T12:17:32.725Z,99155.09
2023-03-11T12:20:04.610Z,99147.78
2023-03-11T12:23:03.397Z,99145.97
2023-03-11T12:25:37.797Z,99157.53
2023-03-11T12:28:18.793Z,99155.94
2023-03-11T12:30:50.405Z,99167.41
2023-03-11T12:33:24.178Z,99166.22
2023-03-11T12:35:56.055Z,99162.47
2023-03-11T12:38:32.341Z,99153.84
2023-03-11T12:41:08.335Z,99155.13
2023-03-11T12:44:02.535Z,99144.53
2023-03-11T12:47:10.225Z,99140.06
2023-03-11T12:49:40.036Z,99140.44
2023-03-11T12:52:20.991Z,99137.41
2023-03-11T12:55:11.411Z,99131.84
2023-03-11T12:57:52.587Z,99131.34
2023-03-11T13:00:30.518Z,99127.00
2023-03-11T13:03:33.428Z,99132.16
2023-03-11T13:06:15.392Z,99131.19
2023-03-11T13:08:48.433Z,99140.59
2023-03-11T13:11:37.251Z,99141.34
2023-03-11T13:14:30.180Z,99151.38
2023-03-11T13:17:18.154Z,99167.59
2023-03-11T13:19:51.360Z,99176.50
2023-03-11T13:22:45.331Z,99167.66
2023-03-11T13:25:32.160Z,99163.97
2023-03-11T13:28:15.283Z,99160.06
2023-03-11T13:30:51.505Z,99141.91
2023-03-11T13:33:36.597Z,99140.97
2023-03-11T13:36:15.588Z,99136.03
2023-03-11T13:39:24.907Z,99138.19
2023-03-11T13:41:52.847Z,99133.06
2023-03-11T13:44:30.360Z,99142.81
2023-03-11T13:47:03.852Z,99143.31
2023-03-11T13:49:39.545Z,99153.50
2023-03-11T13:52:10.632Z,99147.81
2023-03-11T13:54:46.584Z,99154.16
2023-03-11T13:57:25.044Z,99154.81
2023-03-11T13:59:55.342Z,99170.16
2023-03-11T14:02:25.421Z,99162.69
2023-03-11T14:04:57.125Z,99164.53
2023-03-11T14:07:31.681Z,99164.88
2023-03-11T14:10:18.202Z,99169.59
2023-03-11T14:12:46.072Z,99171.25
2023-03-11T14:15:20.311Z,99174.75
2023-03-11T14:17:48.883Z,99182.66
2023-03-11T14:20:20.127Z,99183.72
2023-03-11T14:22:50.092Z,99193.78
2023-03-11T14:25:20.642Z,99182.25
2023-03-11T14:27:53.981Z,99187.59
2023-03-11T14:30:26.994Z,99205.81
2023-03-11T14:33:00.578Z,99206.69
2023-03-11T14:35:29.068Z,99212.66
2023-03-11T14:37:56.994Z,99205.16
2023-03-11T14:40:27.703Z,99202.72
2023-03-11T14:42:58.750Z,99195.16
2023-03-11T14:45:30.768Z,99199.28
2023-03-11T14:48:04.046Z,99190.69
2023-03-11T14:50:35.166Z,99195.63
2023-03-11T14:53:07.512Z,99191.38
2023-03-11T14:55:41.055Z,99200.88
2023-03-11T14:58:17.428Z,99196.53
2023-03-11T15:00:50.308Z,99195.59
2023-03-11T15:03:24.556Z,99194.53
2023-03-11T15:05:55.854Z,99199.28
2023-03-11T15:08:28.062Z,99204.38
2023-03-11T15:11:04.484Z,99197.22
2023-03-11T15:13:32.379Z,99201.44
2023-03-11T15:16:03.080Z,99201.53
2023-03-11T15:18:33.450Z,99203.38
2023-03-11T15:21:07.862Z,99205.00
2023-03-11T15:23:37.089Z,99222.94
2023-03-11T15:26:06.699Z,99214.09
2023-03-11T15:28:37.187Z,99212.75
2023-03-11T15:31:31.346Z,99212.63
2023-03-11T15:34:10.434Z,99211.09
2023-03-11T15:36:40.269Z,99220.28
2023-03-11T15:39:14.534Z,99211.44
2023-03-11T15:41:42.439Z,99214.84
2023-03-11T15:44:24.654Z,99219.50
2023-03-11T15:46:54.100Z,99216.88
2023-03-11T15:49:22.560Z,99217.25
2023-03-11T15:51:50.292Z,99227.38
2023-03-11T15:54:17.912Z,99221.91
2023-03-11T15:56:46.366Z,99224.28
2023-03-11T15:59:16.171Z,99223.78
2023-03-11T16:01:43.985Z,99230.94
2023-03-11T16:04:17.745Z,99232.00
2023-03-11T16:06:49.516Z,99240.91
2023-03-11T16:09:22.609Z,99248.78
2023-03-11T16:11:50.314Z,99244.53
2023-03-11T16:14:19.955Z,99249.03
2023-03-11T16:16:48.248Z,99257.09
2023-03-11T16:19:17.235Z,99251.06
2023-03-11T16:21:49.401Z,99252.31
2023-03-11T16:24:20.855Z,99253.56
2023-03-11T16:26:49.158Z,99252.16
2023-03-11T16:29:19.586Z,99254.75
2023-03-11T16:31:49.190Z,99259.63
2023-03-11T16:34:19.048Z,99254.88
2023-03-11T16:36:46.675Z,99261.03
2023-03-11T16:39:14.771Z,99262.75
2023-03-11T16:41:44.130Z,99266.94
2023-03-11T16:44:12.682Z,99266.75
2023-03-11T16:46:40.422Z,99282.09
2023-03-11T16:49:08.114Z,99275.13
2023-03-11T16:51:37.114Z,99280.06
2023-03-11T16:54:04.877Z,99289.75
2023-03-11T16:56:32.551Z,99280.47
2023-03-11T16:59:01.195Z,99294.09
2023-03-11T17:01:28.869Z,99292.50
2023-03-11T17:03:56.535Z,99297.84
2023-03-11T17:06:24.220Z,99297.88
2023-03-11T17:08:53.322Z,99308.72
2023-03-11T17:11:22.817Z,99310.31
2023-03-11T17:13:51.812Z,99302.06
2023-03-11T17:16:19.468Z,99307.34
2023-03-11T17:18:47.371Z,99306.72
2023-03-11T17:21:16.614Z,99314.91
2023-03-11T17:23:44.972Z,99318.81
2023-03-11T17:26:16.390Z,99317.78
2023-03-11T17:28:44.936Z,99320.63
2023-03-11T17:31:13.612Z,99322.03
2023-03-11T17:33:41.616Z,99313.44
2023-03-11T17:36:13.568Z,99323.56
2023-03-11T17:38:41.200Z,99322.94
2023-03-11T17:41:09.724Z,99324.88
2023-03-11T17:43:38.690Z,99328.84
2023-03-11T17:46:08.296Z,99330.19
2023-03-11T17:48:35.938Z,99332.66
2023-03-11T17:51:06.990Z,99336.69
2023-03-11T17:53:35.811Z,99343.22
2023-03-11T17:56:04.009Z,99348.94
2023-03-11T17:58:31.917Z,99357.03
2023-03-11T18:01:04.117Z,99354.53
2023-03-11T18:03:31.780Z,99356.03
2023-03-11T18:06:01.557Z,99363.97
2023-03-11T18:08:30.195Z,99358.47
2023-03-11T18:11:00.563Z,99362.84
2023-03-11T18:13:28.381Z,99359.50
2023-03-11T18:16:01.911Z,99364.34
2023-03-11T18:18:30.552Z,99373.34
2023-03-11T18:21:02.127Z,99373.19
2023-03-11T18:23:32.831Z,99373.06
2023-03-11T18:26:01.223Z,99384.88
2023-03-11T18:28:29.580Z,99386.13
2023-03-11T18:30:57.553Z,99378.88
2023-03-11T18:33:26.893Z,99380.31
2023-03-11T18:35:54.817Z,99376.59
2023-03-11T18:38:22.540Z,99377.44
2023-03-11T18:40:57.717Z,99379.88
2023-03-11T18:43:25.519Z,99376.81
2023-03-11T18:45:53.223Z,99375.06
2023-03-11T18:48:21.294Z,99376.88
2023-03-11T18:50:53.850Z,99381.84
2023-03-11T18:53:24.863Z,99375.44
2023-03-11T18:55:53.584Z,99387.06
2023-03-11T18:58:21.312Z,99384.22
2023-03-11T19:00:49.134Z,99385.31
2023-03-11T19:03:17.255Z,99388.88
2023-03-11T19:05:50.623Z,99389.94
2023-03-11T19:08:20.385Z,99394.91
2023-03-11T19:10:48.173Z,99402.50
2023-03-11T19:13:19.246Z,99400.47
2023-03-11T19:15:47.710Z,99394.78
2023-03-11T19:18:16.098Z,99406.25
2023-03-11T19:20:44.407Z,99415.81
2023-03-11T19:23:12.242Z,99409.78
2023-03-11T19:25:50.627Z,99413.41
2023-03-11T19:28:25.382Z,99408.56
2023-03-11T19:30:54.592Z,99405.63
2023-03-11T19:33:23.259Z,99413.56
2023-03-11T19:35:53.466Z,99418.97
2023-03-11T19:38:21.681Z,99415.78
2023-03-11T19:40:54.268Z,99415.41
2023-03-11T19:43:23.894Z,99420.59
2023-03-11T19:45:51.812Z,99422.09
2023-03-11T19:48:20.344Z,99428.97
2023-03-11T19:50:49.634Z,99424.34
2023-03-11T19:53:17.940Z,99429.97
2023-03-11T19:55:46.309Z,99436.75
2023-03-11T19:58:16.002Z,99446.38
2023-03-11T20:00:45.422Z,99443.72
2023-03-11T20:03:14.734Z,99447.66
2023-03-11T20:05:44.878Z,99450.19
2023-03-11T20:08:18.316Z,99455.75
2023-03-11T20:10:48.906Z,99457.38
2023-03-11T20:13:20.200Z,99449.31
2023-03-11T20:15:48.927Z,99459.59
2023-03-11T20:18:18.081Z,99456.09
2023-03-11T20:20:46.917Z,99461.19
2023-03-11T20:23:15.752Z,99464.28
2023-03-11T20:25:43.894Z,99457.69
2023-03-11T20:28:11.779Z,99459.91
2023-03-11T20:30:41.331Z,99457.25
2023-03-11T20:33:09.640Z,99459.97
2023-03-11T20:35:37.572Z,99455.44
2023-03-11T20:38:05.556Z,99463.34
2023-03-11T20:40:33.542Z,99460.16
2023-03-11T20:43:02.768Z,99467.06
2023-03-11T20:45:30.928Z,99469.59
2023-03-11T20:48:00.184Z,99469.84
2023-03-11T20:50:27.972Z,99474.59
2023-03-11T20:52:55.624Z,99474.88
2023-03-11T20:55:23.739Z,99473.34
2023-03-11T20:57:53.652Z,99469.84
2023-03-11T21:00:22.074Z,99474.59
2023-03-11T21:02:50.298Z,99472.44
2023-03-11T21:05:19.914Z,99473.16
2023-03-11T21:07:49.272Z,99466.53
2023-03-11T21:10:17.168Z,99472.88
2023-03-11T21:12:45.046Z,99476.09
2023-03-11T21:15:13.300Z,99481.59
2023-03-11T21:17:41.590Z,99476.31
2023-03-11T21:20:11.277Z,99476.09
2023-03-11T21:22:40.596Z,99488.56
2023-03-11T21:25:09.136Z,99482.75
2023-03-11T21:27:37.154Z,99476.31
2023-03-11T21:30:05.907Z,99480.66
2023-03-11T21:32:33.810Z,99476.09
2023-03-11T21:35:02.444Z,99475.06
2023-03-11T21:37:30.397Z,99490.84
2023-03-11T21:39:59.607Z,99483.28
2023-03-11T21:42:30.547Z,99477.66
2023-03-11T21:44:58.499Z,99471.97
2023-03-11T21:47:26.384Z,99473.72
2023-03-11T21:49:54.106Z,99480.47
2023-03-11T21:52:21.761Z,99474.22
2023-03-11T21:54:49.607Z,99476.09
2023-03-11T21:57:18.902Z,99475.69
2023-03-11T21:59:46.782Z,99470.91
2023-03-11T22:02:16.537Z,99475.69
2023-03-11T22:04:44.923Z,99475.59
2023-03-11T22:07:12.894Z,99484.22
2023-03-11T22:09:41.011Z,99481.72
2023-03-11T22:12:09.184Z,99484.31
2023-03-11T22:14:38.462Z,99483.59
2023-03-11T22:17:06.360Z,99480.38
2023-03-11T22:19:34.162Z,99478.59
2023-03-11T22:22:01.848Z,99473.72
2023-03-11T22:24:29.532Z,99476.75
2023-03-11T22:26:57.553Z,99475.25
2023-03-11T22:29:25.194Z,99476.94
2023-03-11T22:31:54.256Z,99476.94
2023-03-11T22:34:21.937Z,99470.81
2023-03-11T22:36:49.857Z,99470.28
2023-03-11T22:39:17.599Z,99482.53
2023-03-11T22:41:45.499Z,99482.63
2023-03-11T22:44:13.112Z,99481.00
2023-03-11T22:46:41.160Z,99477.34
2023-03-11T22:49:10.431Z,99485.34
2023-03-11T22:51:38.219Z,99474.88
2023-03-11T22:54:05.939Z,99472.56
2023-03-11T22:56:33.631Z,99468.94
2023-03-11T22:59:01.322Z,99476.09
2023-03-11T23:01:29.104Z,99476.94
2023-03-11T23:03:56.928Z,99476.06
2023-03-11T23:06:26.144Z,99479.00
2023-03-11T23:08:54.533Z,99487.44
2023-03-11T23:11:23.265Z,99485.66
2023-03-11T23:13:52.104Z,99478.97
2023-03-11T23:16:22.321Z,99481.81
2023-03-11T23:18:53.478Z,99475.47
2023-03-11T23:21:23.164Z,99482.09
2023-03-11T23:23:52.612Z,99480.88
2023-03-11T23:26:21.777Z,99482.63
2023-03-11T23:28:51.158Z,99465.50
2023-03-11T23:31:20.577Z,99481.47
2023-03-11T23:33:48.778Z,99470.91
2023-03-11T23:36:18.617Z,99477.13
2023-03-11T23:38:46.510Z,99479.38
2023-03-11T23:41:17.716Z,99474.72
2023-03-11T23:43:45.590Z,99475.13
2023-03-11T23:46:13.756Z,99471.28
2023-03-11T23:48:41.803Z,99473.34
2023-03-11T23:51:09.696Z,99475.31
2023-03-11T23:53:37.970Z,99466.09
2023-03-11T23:56:10.773Z,99465.03
2023-03-11T23:58:39.801Z,99467.94
